Aviation Digital Data Service (ADDS)

Output produced by METARs form (1311 UTC 01 April 2015)
found at http://aviationweather.gov/adds/metars/
 
KLEB 011120Z 0112/0212 00000KT P6SM SKC 
     FM011300 33009G15KT P6SM SKC 
     FM012100 33005KT P6SM SKC 
     FM020700 00000KT P6SM BKN100